sensor_id;sensor_type;location;lat;lon;timestamp;temperature;humidity
64833;HTU21D;51290;45.060;38.948;2023-07-30T00:02:03;19.05;64.43
64833;HTU21D;51290;45.060;38.948;2023-07-30T00:04:29;19.00;64.49
64833;HTU21D;51290;45.060;38.948;2023-07-30T00:06:55;18.98;64.63
64833;HTU21D;51290;45.060;38.948;2023-07-30T00:09:21;18.96;64.73
64833;HTU21D;51290;45.060;38.948;2023-07-30T00:11:47;18.94;64.84
64833;HTU21D;51290;45.060;38.948;2023-07-30T00:14:13;18.94;64.95
64833;HTU21D;51290;45.060;38.948;2023-07-30T00:16:38;18.91;65.07
64833;HTU21D;51290;45.060;38.948;2023-07-30T00:19:04;18.89;65.18
64833;HTU21D;51290;45.060;38.948;2023-07-30T00:21:30;18.87;65.28
64833;HTU21D;51290;45.060;38.948;2023-07-30T00:23:56;18.87;65.38
64833;HTU21D;51290;45.060;38.948;2023-07-30T00:26:22;18.85;65.47
64833;HTU21D;51290;45.060;38.948;2023-07-30T00:28:51;18.84;65.56
64833;HTU21D;51290;45.060;38.948;2023-07-30T00:31:17;18.82;65.65
64833;HTU21D;51290;45.060;38.948;2023-07-30T00:33:43;18.84;65.72
64833;HTU21D;51290;45.060;38.948;2023-07-30T00:36:09;18.81;65.80
64833;HTU21D;51290;45.060;38.948;2023-07-30T00:38:35;18.81;65.93
64833;HTU21D;51290;45.060;38.948;2023-07-30T00:41:01;18.79;65.98
64833;HTU21D;51290;45.060;38.948;2023-07-30T00:43:28;18.79;66.05
64833;HTU21D;51290;45.060;38.948;2023-07-30T00:45:54;18.76;66.07
64833;HTU21D;51290;45.060;38.948;2023-07-30T00:48:21;18.73;66.24
64833;HTU21D;51290;45.060;38.948;2023-07-30T00:50:48;18.73;66.34
64833;HTU21D;51290;45.060;38.948;2023-07-30T00:53:15;18.72;66.40
64833;HTU21D;51290;45.060;38.948;2023-07-30T00:55:42;18.72;66.44
64833;HTU21D;51290;45.060;38.948;2023-07-30T00:58:10;18.70;66.51
64833;HTU21D;51290;45.060;38.948;2023-07-30T01:00:36;18.67;66.60
64833;HTU21D;51290;45.060;38.948;2023-07-30T01:03:02;18.64;66.83
64833;HTU21D;51290;45.060;38.948;2023-07-30T01:05:28;18.62;66.91
64833;HTU21D;51290;45.060;38.948;2023-07-30T01:07:55;18.57;66.98
64833;HTU21D;51290;45.060;38.948;2023-07-30T01:10:21;18.56;67.07
64833;HTU21D;51290;45.060;38.948;2023-07-30T01:12:48;18.53;67.12
64833;HTU21D;51290;45.060;38.948;2023-07-30T01:15:14;18.49;67.30
64833;HTU21D;51290;45.060;38.948;2023-07-30T01:17:41;18.48;67.40
64833;HTU21D;51290;45.060;38.948;2023-07-30T01:20:07;18.46;67.48
64833;HTU21D;51290;45.060;38.948;2023-07-30T01:22:33;18.44;67.59
64833;HTU21D;51290;45.060;38.948;2023-07-30T01:24:59;18.44;67.75
64833;HTU21D;51290;45.060;38.948;2023-07-30T01:27:29;18.44;67.86
64833;HTU21D;51290;45.060;38.948;2023-07-30T01:30:18;18.47;67.78
64833;HTU21D;51290;45.060;38.948;2023-07-30T01:32:45;18.48;67.81
64833;HTU21D;51290;45.060;38.948;2023-07-30T01:35:13;18.48;67.78
64833;HTU21D;51290;45.060;38.948;2023-07-30T01:37:39;18.46;67.91
64833;HTU21D;51290;45.060;38.948;2023-07-30T01:40:07;18.46;68.04
64833;HTU21D;51290;45.060;38.948;2023-07-30T01:42:34;18.44;68.04
64833;HTU21D;51290;45.060;38.948;2023-07-30T01:45:00;18.42;68.00
64833;HTU21D;51290;45.060;38.948;2023-07-30T01:47:26;18.39;68.02
64833;HTU21D;51290;45.060;38.948;2023-07-30T01:49:52;18.35;68.04
64833;HTU21D;51290;45.060;38.948;2023-07-30T01:52:18;18.32;68.04
64833;HTU21D;51290;45.060;38.948;2023-07-30T01:54:45;18.26;68.10
64833;HTU21D;51290;45.060;38.948;2023-07-30T01:57:11;18.22;68.27
64833;HTU21D;51290;45.060;38.948;2023-07-30T01:59:38;18.18;68.36
64833;HTU21D;51290;45.060;38.948;2023-07-30T02:02:04;18.15;68.43
64833;HTU21D;51290;45.060;38.948;2023-07-30T02:04:30;18.12;68.45
64833;HTU21D;51290;45.060;38.948;2023-07-30T02:06:56;18.09;68.47
64833;HTU21D;51290;45.060;38.948;2023-07-30T02:09:22;18.06;68.52
64833;HTU21D;51290;45.060;38.948;2023-07-30T02:11:48;18.05;68.58
64833;HTU21D;51290;45.060;38.948;2023-07-30T02:14:14;18.03;68.59
64833;HTU21D;51290;45.060;38.948;2023-07-30T02:16:40;17.99;68.68
64833;HTU21D;51290;45.060;38.948;2023-07-30T02:19:07;17.99;68.91
64833;HTU21D;51290;45.060;38.948;2023-07-30T02:21:33;18.00;68.92
64833;HTU21D;51290;45.060;38.948;2023-07-30T02:24:02;18.03;68.97
64833;HTU21D;51290;45.060;38.948;2023-07-30T02:26:28;18.05;69.00
64833;HTU21D;51290;45.060;38.948;2023-07-30T02:28:54;18.09;69.07
64833;HTU21D;51290;45.060;38.948;2023-07-30T02:31:20;18.11;69.02
64833;HTU21D;51290;45.060;38.948;2023-07-30T02:33:46;18.14;69.02
64833;HTU21D;51290;45.060;38.948;2023-07-30T02:36:12;18.19;69.00
64833;HTU21D;51290;45.060;38.948;2023-07-30T02:38:38;18.20;69.02
64833;HTU21D;51290;45.060;38.948;2023-07-30T02:41:04;18.25;68.98
64833;HTU21D;51290;45.060;38.948;2023-07-30T02:43:30;18.28;68.96
64833;HTU21D;51290;45.060;38.948;2023-07-30T02:45:56;18.34;68.91
64833;HTU21D;51290;45.060;38.948;2023-07-30T02:48:22;18.38;68.94
64833;HTU21D;51290;45.060;38.948;2023-07-30T02:50:48;18.46;68.97
64833;HTU21D;51290;45.060;38.948;2023-07-30T02:53:14;18.53;69.04
64833;HTU21D;51290;45.060;38.948;2023-07-30T02:55:40;18.61;69.00
64833;HTU21D;51290;45.060;38.948;2023-07-30T02:58:06;18.70;68.98
64833;HTU21D;51290;45.060;38.948;2023-07-30T03:00:32;18.80;68.93
64833;HTU21D;51290;45.060;38.948;2023-07-30T03:02:58;18.91;68.97
64833;HTU21D;51290;45.060;38.948;2023-07-30T03:05:26;19.13;69.04
64833;HTU21D;51290;45.060;38.948;2023-07-30T03:07:55;19.58;68.68
64833;HTU21D;51290;45.060;38.948;2023-07-30T03:10:21;20.13;68.04
64833;HTU21D;51290;45.060;38.948;2023-07-30T03:12:47;20.95;66.65
64833;HTU21D;51290;45.060;38.948;2023-07-30T03:15:13;21.92;64.76
64833;HTU21D;51290;45.060;38.948;2023-07-30T03:17:39;22.88;62.89
64833;HTU21D;51290;45.060;38.948;2023-07-30T03:20:05;23.77;61.02
64833;HTU21D;51290;45.060;38.948;2023-07-30T03:22:32;24.49;59.60
64833;HTU21D;51290;45.060;38.948;2023-07-30T03:24:58;25.10;58.39
64833;HTU21D;51290;45.060;38.948;2023-07-30T03:27:24;25.68;57.22
64833;HTU21D;51290;45.060;38.948;2023-07-30T03:29:50;26.28;56.14
64833;HTU21D;51290;45.060;38.948;2023-07-30T03:32:16;26.83;55.00
64833;HTU21D;51290;45.060;38.948;2023-07-30T03:34:42;27.14;54.04
64833;HTU21D;51290;45.060;38.948;2023-07-30T03:37:08;27.35;53.46
64833;HTU21D;51290;45.060;38.948;2023-07-30T03:39:34;27.56;52.89
64833;HTU21D;51290;45.060;38.948;2023-07-30T03:42:00;27.71;52.27
64833;HTU21D;51290;45.060;38.948;2023-07-30T03:44:26;27.85;51.70
64833;HTU21D;51290;45.060;38.948;2023-07-30T03:46:52;28.00;51.35
64833;HTU21D;51290;45.060;38.948;2023-07-30T03:49:18;28.21;50.92
64833;HTU21D;51290;45.060;38.948;2023-07-30T03:51:44;28.55;50.29
64833;HTU21D;51290;45.060;38.948;2023-07-30T03:54:10;28.85;49.50
64833;HTU21D;51290;45.060;38.948;2023-07-30T03:56:37;29.15;49.02
64833;HTU21D;51290;45.060;38.948;2023-07-30T03:59:03;29.45;48.06
64833;HTU21D;51290;45.060;38.948;2023-07-30T04:01:29;29.63;47.59
64833;HTU21D;51290;45.060;38.948;2023-07-30T04:03:59;29.85;47.08
64833;HTU21D;51290;45.060;38.948;2023-07-30T04:06:25;30.01;46.56
64833;HTU21D;51290;45.060;38.948;2023-07-30T04:08:51;30.17;46.15
64833;HTU21D;51290;45.060;38.948;2023-07-30T04:11:17;30.35;45.66
64833;HTU21D;51290;45.060;38.948;2023-07-30T04:13:48;30.51;45.28
64833;HTU21D;51290;45.060;38.948;2023-07-30T04:16:14;30.70;45.03
64833;HTU21D;51290;45.060;38.948;2023-07-30T04:18:40;30.92;44.47
64833;HTU21D;51290;45.060;38.948;2023-07-30T04:21:06;30.98;44.06
64833;HTU21D;51290;45.060;38.948;2023-07-30T04:23:32;31.05;43.88
64833;HTU21D;51290;45.060;38.948;2023-07-30T04:25:58;30.99;43.73
64833;HTU21D;51290;45.060;38.948;2023-07-30T04:28:24;30.53;44.40
64833;HTU21D;51290;45.060;38.948;2023-07-30T04:30:52;29.79;45.63
64833;HTU21D;51290;45.060;38.948;2023-07-30T04:33:21;29.00;47.07
64833;HTU21D;51290;45.060;38.948;2023-07-30T04:35:48;28.33;48.30
64833;HTU21D;51290;45.060;38.948;2023-07-30T04:38:14;27.79;49.33
64833;HTU21D;51290;45.060;38.948;2023-07-30T04:40:40;27.34;50.14
64833;HTU21D;51290;45.060;38.948;2023-07-30T04:43:07;26.96;50.89
64833;HTU21D;51290;45.060;38.948;2023-07-30T04:45:33;26.65;51.53
64833;HTU21D;51290;45.060;38.948;2023-07-30T04:47:59;26.40;51.99
64833;HTU21D;51290;45.060;38.948;2023-07-30T04:50:26;26.17;52.42
64833;HTU21D;51290;45.060;38.948;2023-07-30T04:52:52;25.99;52.87
64833;HTU21D;51290;45.060;38.948;2023-07-30T04:55:18;25.86;53.20
64833;HTU21D;51290;45.060;38.948;2023-07-30T04:57:44;25.74;53.47
64833;HTU21D;51290;45.060;38.948;2023-07-30T05:00:11;25.66;53.70
64833;HTU21D;51290;45.060;38.948;2023-07-30T05:02:37;25.59;53.84
64833;HTU21D;51290;45.060;38.948;2023-07-30T05:05:03;25.49;54.03
64833;HTU21D;51290;45.060;38.948;2023-07-30T05:07:29;25.44;54.19
64833;HTU21D;51290;45.060;38.948;2023-07-30T05:09:55;25.40;54.31
64833;HTU21D;51290;45.060;38.948;2023-07-30T05:12:21;25.39;54.42
64833;HTU21D;51290;45.060;38.948;2023-07-30T05:14:47;25.42;54.51
64833;HTU21D;51290;45.060;38.948;2023-07-30T05:17:16;25.44;54.57
64833;HTU21D;51290;45.060;38.948;2023-07-30T05:19:42;25.51;54.63
64833;HTU21D;51290;45.060;38.948;2023-07-30T05:22:13;25.56;54.55
64833;HTU21D;51290;45.060;38.948;2023-07-30T05:24:39;25.58;54.57
64833;HTU21D;51290;45.060;38.948;2023-07-30T05:27:05;25.60;54.44
64833;HTU21D;51290;45.060;38.948;2023-07-30T05:29:31;25.61;54.46
64833;HTU21D;51290;45.060;38.948;2023-07-30T05:31:57;25.63;54.53
64833;HTU21D;51290;45.060;38.948;2023-07-30T05:34:23;25.68;54.53
64833;HTU21D;51290;45.060;38.948;2023-07-30T05:36:52;25.75;54.44
64833;HTU21D;51290;45.060;38.948;2023-07-30T05:39:18;25.80;54.45
64833;HTU21D;51290;45.060;38.948;2023-07-30T05:41:44;25.88;54.33
64833;HTU21D;51290;45.060;38.948;2023-07-30T05:44:10;25.90;54.26
64833;HTU21D;51290;45.060;38.948;2023-07-30T05:46:36;25.93;54.28
64833;HTU21D;51290;45.060;38.948;2023-07-30T05:49:02;25.96;54.30
64833;HTU21D;51290;45.060;38.948;2023-07-30T05:51:28;26.03;54.31
64833;HTU21D;51290;45.060;38.948;2023-07-30T05:53:54;26.09;54.26
64833;HTU21D;51290;45.060;38.948;2023-07-30T05:56:20;26.16;54.01
64833;HTU21D;51290;45.060;38.948;2023-07-30T05:58:46;26.16;53.75
64833;HTU21D;51290;45.060;38.948;2023-07-30T06:01:12;26.19;53.63
64833;HTU21D;51290;45.060;38.948;2023-07-30T06:03:38;26.21;53.59
64833;HTU21D;51290;45.060;38.948;2023-07-30T06:06:04;26.25;53.57
64833;HTU21D;51290;45.060;38.948;2023-07-30T06:08:30;26.30;53.43
64833;HTU21D;51290;45.060;38.948;2023-07-30T06:11:00;26.32;53.03
64833;HTU21D;51290;45.060;38.948;2023-07-30T06:13:27;26.33;52.74
64833;HTU21D;51290;45.060;38.948;2023-07-30T06:15:53;26.35;52.39
64833;HTU21D;51290;45.060;38.948;2023-07-30T06:18:19;26.37;52.18
64833;HTU21D;51290;45.060;38.948;2023-07-30T06:20:45;26.42;52.10
64833;HTU21D;51290;45.060;38.948;2023-07-30T06:23:11;26.45;51.91
64833;HTU21D;51290;45.060;38.948;2023-07-30T06:25:37;26.49;51.67
64833;HTU21D;51290;45.060;38.948;2023-07-30T06:28:04;26.52;51.37
64833;HTU21D;51290;45.060;38.948;2023-07-30T06:30:32;26.57;51.14
64833;HTU21D;51290;45.060;38.948;2023-07-30T06:32:58;26.64;51.09
64833;HTU21D;51290;45.060;38.948;2023-07-30T06:35:24;26.69;51.16
64833;HTU21D;51290;45.060;38.948;2023-07-30T06:37:50;26.78;50.93
64833;HTU21D;51290;45.060;38.948;2023-07-30T06:40:19;26.82;50.54
64833;HTU21D;51290;45.060;38.948;2023-07-30T06:42:45;26.87;50.35
64833;HTU21D;51290;45.060;38.948;2023-07-30T06:45:11;26.87;50.30
64833;HTU21D;51290;45.060;38.948;2023-07-30T06:47:37;26.89;50.14
64833;HTU21D;51290;45.060;38.948;2023-07-30T06:50:05;26.94;50.05
64833;HTU21D;51290;45.060;38.948;2023-07-30T06:52:33;26.95;49.90
64833;HTU21D;51290;45.060;38.948;2023-07-30T06:55:00;27.00;49.61
64833;HTU21D;51290;45.060;38.948;2023-07-30T06:57:26;27.07;49.18
64833;HTU21D;51290;45.060;38.948;2023-07-30T06:59:54;27.19;48.95
64833;HTU21D;51290;45.060;38.948;2023-07-30T07:02:23;27.35;48.72
64833;HTU21D;51290;45.060;38.948;2023-07-30T07:04:49;27.41;48.15
64833;HTU21D;51290;45.060;38.948;2023-07-30T07:07:15;27.42;48.23
64833;HTU21D;51290;45.060;38.948;2023-07-30T07:09:41;27.43;48.28
64833;HTU21D;51290;45.060;38.948;2023-07-30T07:12:09;27.42;47.90
64833;HTU21D;51290;45.060;38.948;2023-07-30T07:14:34;27.37;47.70
64833;HTU21D;51290;45.060;38.948;2023-07-30T07:17:00;27.31;47.60
64833;HTU21D;51290;45.060;38.948;2023-07-30T07:19:26;27.28;47.68
64833;HTU21D;51290;45.060;38.948;2023-07-30T07:21:52;27.29;47.72
64833;HTU21D;51290;45.060;38.948;2023-07-30T07:24:18;27.27;47.60
64833;HTU21D;51290;45.060;38.948;2023-07-30T07:26:44;27.24;47.60
64833;HTU21D;51290;45.060;38.948;2023-07-30T07:29:10;27.24;47.58
64833;HTU21D;51290;45.060;38.948;2023-07-30T07:31:36;27.22;47.47
64833;HTU21D;51290;45.060;38.948;2023-07-30T07:34:02;27.17;47.25
64833;HTU21D;51290;45.060;38.948;2023-07-30T07:36:30;27.11;47.17
64833;HTU21D;51290;45.060;38.948;2023-07-30T07:38:56;27.10;47.29
64833;HTU21D;51290;45.060;38.948;2023-07-30T07:41:22;27.12;47.33
64833;HTU21D;51290;45.060;38.948;2023-07-30T07:43:48;27.14;47.34
64833;HTU21D;51290;45.060;38.948;2023-07-30T07:46:14;27.22;47.35
64833;HTU21D;51290;45.060;38.948;2023-07-30T07:48:42;27.27;47.31
64833;HTU21D;51290;45.060;38.948;2023-07-30T07:51:09;27.32;47.22
64833;HTU21D;51290;45.060;38.948;2023-07-30T07:53:38;27.35;47.06
64833;HTU21D;51290;45.060;38.948;2023-07-30T07:56:07;27.37;46.90
64833;HTU21D;51290;45.060;38.948;2023-07-30T07:58:33;27.39;46.79
64833;HTU21D;51290;45.060;38.948;2023-07-30T08:01:08;27.38;46.85
64833;HTU21D;51290;45.060;38.948;2023-07-30T08:03:34;27.37;46.81
64833;HTU21D;51290;45.060;38.948;2023-07-30T08:06:00;27.37;46.81
64833;HTU21D;51290;45.060;38.948;2023-07-30T08:08:29;27.35;46.79
64833;HTU21D;51290;45.060;38.948;2023-07-30T08:10:55;27.36;46.68
64833;HTU21D;51290;45.060;38.948;2023-07-30T08:13:21;27.35;46.33
64833;HTU21D;51290;45.060;38.948;2023-07-30T08:15:47;27.34;46.35
64833;HTU21D;51290;45.060;38.948;2023-07-30T08:18:13;27.37;46.38
64833;HTU21D;51290;45.060;38.948;2023-07-30T08:20:42;27.41;46.35
64833;HTU21D;51290;45.060;38.948;2023-07-30T08:23:08;27.47;46.12
64833;HTU21D;51290;45.060;38.948;2023-07-30T08:25:34;27.51;45.96
64833;HTU21D;51290;45.060;38.948;2023-07-30T08:28:00;27.52;45.62
64833;HTU21D;51290;45.060;38.948;2023-07-30T08:30:26;27.55;45.38
64833;HTU21D;51290;45.060;38.948;2023-07-30T08:32:52;27.56;45.22
64833;HTU21D;51290;45.060;38.948;2023-07-30T08:35:18;27.58;45.12
64833;HTU21D;51290;45.060;38.948;2023-07-30T08:37:49;27.59;44.90
64833;HTU21D;51290;45.060;38.948;2023-07-30T08:40:15;27.59;45.00
64833;HTU21D;51290;45.060;38.948;2023-07-30T08:42:51;27.61;45.09
64833;HTU21D;51290;45.060;38.948;2023-07-30T08:45:17;27.65;45.06
64833;HTU21D;51290;45.060;38.948;2023-07-30T08:47:45;27.67;44.73
64833;HTU21D;51290;45.060;38.948;2023-07-30T08:50:17;27.66;44.70
64833;HTU21D;51290;45.060;38.948;2023-07-30T08:52:43;27.68;44.61
64833;HTU21D;51290;45.060;38.948;2023-07-30T08:55:10;27.72;44.66
64833;HTU21D;51290;45.060;38.948;2023-07-30T08:57:38;27.78;44.59
64833;HTU21D;51290;45.060;38.948;2023-07-30T09:00:08;27.82;44.53
64833;HTU21D;51290;45.060;38.948;2023-07-30T09:02:48;27.86;44.47
64833;HTU21D;51290;45.060;38.948;2023-07-30T09:05:14;27.87;44.39
64833;HTU21D;51290;45.060;38.948;2023-07-30T09:07:40;27.89;44.35
64833;HTU21D;51290;45.060;38.948;2023-07-30T09:10:12;27.94;44.40
64833;HTU21D;51290;45.060;38.948;2023-07-30T09:12:38;28.02;44.40
64833;HTU21D;51290;45.060;38.948;2023-07-30T09:15:09;28.15;44.29
64833;HTU21D;51290;45.060;38.948;2023-07-30T09:17:35;28.28;44.06
64833;HTU21D;51290;45.060;38.948;2023-07-30T09:20:03;28.33;43.69
64833;HTU21D;51290;45.060;38.948;2023-07-30T09:22:31;28.35;43.49
64833;HTU21D;51290;45.060;38.948;2023-07-30T09:25:07;28.39;43.44
64833;HTU21D;51290;45.060;38.948;2023-07-30T09:27:33;28.41;43.35
64833;HTU21D;51290;45.060;38.948;2023-07-30T09:30:01;28.40;42.64
64833;HTU21D;51290;45.060;38.948;2023-07-30T09:32:31;28.39;42.87
64833;HTU21D;51290;45.060;38.948;2023-07-30T09:35:11;28.39;43.01
64833;HTU21D;51290;45.060;38.948;2023-07-30T09:37:45;28.41;43.06
64833;HTU21D;51290;45.060;38.948;2023-07-30T09:40:13;28.44;43.08
64833;HTU21D;51290;45.060;38.948;2023-07-30T09:42:46;28.46;42.83
64833;HTU21D;51290;45.060;38.948;2023-07-30T09:45:37;28.41;42.65
64833;HTU21D;51290;45.060;38.948;2023-07-30T09:48:05;28.34;42.74
64833;HTU21D;51290;45.060;38.948;2023-07-30T09:50:33;28.28;42.79
64833;HTU21D;51290;45.060;38.948;2023-07-30T09:53:13;28.25;42.93
64833;HTU21D;51290;45.060;38.948;2023-07-30T09:55:40;28.23;42.81
64833;HTU21D;51290;45.060;38.948;2023-07-30T09:58:06;28.20;42.72
64833;HTU21D;51290;45.060;38.948;2023-07-30T10:00:38;28.21;42.87
64833;HTU21D;51290;45.060;38.948;2023-07-30T10:03:05;28.27;42.85
64833;HTU21D;51290;45.060;38.948;2023-07-30T10:05:33;28.30;42.78
64833;HTU21D;51290;45.060;38.948;2023-07-30T10:08:34;28.30;42.84
64833;HTU21D;51290;45.060;38.948;2023-07-30T10:11:04;28.33;42.64
64833;HTU21D;51290;45.060;38.948;2023-07-30T10:13:31;28.32;42.58
64833;HTU21D;51290;45.060;38.948;2023-07-30T10:15:57;28.34;42.62
64833;HTU21D;51290;45.060;38.948;2023-07-30T10:18:41;28.38;42.64
64833;HTU21D;51290;45.060;38.948;2023-07-30T10:21:09;28.40;42.45
64833;HTU21D;51290;45.060;38.948;2023-07-30T10:23:36;28.40;42.37
64833;HTU21D;51290;45.060;38.948;2023-07-30T10:26:11;28.41;41.82
64833;HTU21D;51290;45.060;38.948;2023-07-30T10:28:37;28.40;42.07
64833;HTU21D;51290;45.060;38.948;2023-07-30T10:31:06;28.38;42.07
64833;HTU21D;51290;45.060;38.948;2023-07-30T10:33:53;28.34;42.02
64833;HTU21D;51290;45.060;38.948;2023-07-30T10:36:33;28.32;41.96
64833;HTU21D;51290;45.060;38.948;2023-07-30T10:39:16;28.30;42.00
64833;HTU21D;51290;45.060;38.948;2023-07-30T10:41:44;28.30;41.98
64833;HTU21D;51290;45.060;38.948;2023-07-30T10:44:23;28.29;42.13
64833;HTU21D;51290;45.060;38.948;2023-07-30T10:46:54;28.30;42.19
64833;HTU21D;51290;45.060;38.948;2023-07-30T10:49:26;28.29;42.13
64833;HTU21D;51290;45.060;38.948;2023-07-30T10:51:55;28.29;42.10
64833;HTU21D;51290;45.060;38.948;2023-07-30T10:54:21;28.29;41.99
64833;HTU21D;51290;45.060;38.948;2023-07-30T10:56:47;28.28;42.00
64833;HTU21D;51290;45.060;38.948;2023-07-30T10:59:14;28.30;42.06
64833;HTU21D;51290;45.060;38.948;2023-07-30T11:01:42;28.35;42.08
64833;HTU21D;51290;45.060;38.948;2023-07-30T11:04:16;28.42;42.07
64833;HTU21D;51290;45.060;38.948;2023-07-30T11:06:47;28.53;41.83
64833;HTU21D;51290;45.060;38.948;2023-07-30T11:09:25;28.60;41.36
64833;HTU21D;51290;45.060;38.948;2023-07-30T11:11:53;28.67;41.21
64833;HTU21D;51290;45.060;38.948;2023-07-30T11:14:21;28.75;40.68
64833;HTU21D;51290;45.060;38.948;2023-07-30T11:16:55;28.83;40.39
64833;HTU21D;51290;45.060;38.948;2023-07-30T11:19:23;28.99;40.33
64833;HTU21D;51290;45.060;38.948;2023-07-30T11:21:52;29.19;40.20
64833;HTU21D;51290;45.060;38.948;2023-07-30T11:24:21;29.42;39.89
64833;HTU21D;51290;45.060;38.948;2023-07-30T11:27:01;29.75;39.58
64833;HTU21D;51290;45.060;38.948;2023-07-30T11:29:27;30.05;39.24
64833;HTU21D;51290;45.060;38.948;2023-07-30T11:31:56;30.23;38.90
64833;HTU21D;51290;45.060;38.948;2023-07-30T11:34:25;30.35;38.54
64833;HTU21D;51290;45.060;38.948;2023-07-30T11:36:52;30.36;38.22
64833;HTU21D;51290;45.060;38.948;2023-07-30T11:39:19;30.34;38.02
64833;HTU21D;51290;45.060;38.948;2023-07-30T11:41:49;30.25;37.38
64833;HTU21D;51290;45.060;38.948;2023-07-30T11:44:31;30.18;37.62
64833;HTU21D;51290;45.060;38.948;2023-07-30T11:46:57;30.18;37.88
64833;HTU21D;51290;45.060;38.948;2023-07-30T11:49:23;30.21;37.87
64833;HTU21D;51290;45.060;38.948;2023-07-30T11:51:49;30.21;37.77
64833;HTU21D;51290;45.060;38.948;2023-07-30T11:54:21;30.19;37.59
64833;HTU21D;51290;45.060;38.948;2023-07-30T11:56:55;30.21;37.50
64833;HTU21D;51290;45.060;38.948;2023-07-30T11:59:21;30.27;37.46
64833;HTU21D;51290;45.060;38.948;2023-07-30T12:01:47;30.23;37.27
64833;HTU21D;51290;45.060;38.948;2023-07-30T12:04:14;30.11;37.39
64833;HTU21D;51290;45.060;38.948;2023-07-30T12:06:43;30.05;37.53
64833;HTU21D;51290;45.060;38.948;2023-07-30T12:09:14;30.08;37.56
64833;HTU21D;51290;45.060;38.948;2023-07-30T12:14:15;30.17;37.60
64833;HTU21D;51290;45.060;38.948;2023-07-30T12:16:41;30.34;37.31
64833;HTU21D;51290;45.060;38.948;2023-07-30T12:19:08;30.63;37.16
64833;HTU21D;51290;45.060;38.948;2023-07-30T12:21:34;30.89;36.86
64833;HTU21D;51290;45.060;38.948;2023-07-30T12:24:02;30.98;36.67
64833;HTU21D;51290;45.060;38.948;2023-07-30T12:26:29;31.09;36.63
64833;HTU21D;51290;45.060;38.948;2023-07-30T12:28:56;31.11;36.37
64833;HTU21D;51290;45.060;38.948;2023-07-30T12:31:22;31.02;35.91
64833;HTU21D;51290;45.060;38.948;2023-07-30T12:33:48;30.93;35.95
64833;HTU21D;51290;45.060;38.948;2023-07-30T12:36:14;30.81;36.03
64833;HTU21D;51290;45.060;38.948;2023-07-30T12:38:40;30.71;36.15
64833;HTU21D;51290;45.060;38.948;2023-07-30T12:41:06;30.71;36.35
64833;HTU21D;51290;45.060;38.948;2023-07-30T12:43:32;30.82;36.42
64833;HTU21D;51290;45.060;38.948;2023-07-30T12:45:59;30.91;36.27
64833;HTU21D;51290;45.060;38.948;2023-07-30T12:48:25;30.92;36.23
64833;HTU21D;51290;45.060;38.948;2023-07-30T12:50:51;30.84;36.28
64833;HTU21D;51290;45.060;38.948;2023-07-30T12:53:22;30.74;36.40
64833;HTU21D;51290;45.060;38.948;2023-07-30T12:55:49;30.66;36.61
64833;HTU21D;51290;45.060;38.948;2023-07-30T12:58:18;30.64;36.66
64833;HTU21D;51290;45.060;38.948;2023-07-30T13:00:44;30.67;36.59
64833;HTU21D;51290;45.060;38.948;2023-07-30T13:03:10;30.63;36.49
64833;HTU21D;51290;45.060;38.948;2023-07-30T13:05:37;30.57;36.25
64833;HTU21D;51290;45.060;38.948;2023-07-30T13:08:04;30.48;36.50
64833;HTU21D;51290;45.060;38.948;2023-07-30T13:10:30;30.47;36.72
64833;HTU21D;51290;45.060;38.948;2023-07-30T13:12:56;30.52;36.79
64833;HTU21D;51290;45.060;38.948;2023-07-30T13:15:22;30.62;36.63
64833;HTU21D;51290;45.060;38.948;2023-07-30T13:17:49;30.72;36.42
64833;HTU21D;51290;45.060;38.948;2023-07-30T13:20:15;30.79;36.24
64833;HTU21D;51290;45.060;38.948;2023-07-30T13:22:41;30.95;36.29
64833;HTU21D;51290;45.060;38.948;2023-07-30T13:25:07;31.10;35.79
64833;HTU21D;51290;45.060;38.948;2023-07-30T13:27:33;31.14;35.56
64833;HTU21D;51290;45.060;38.948;2023-07-30T13:29:59;31.18;35.67
64833;HTU21D;51290;45.060;38.948;2023-07-30T13:32:25;31.15;35.50
64833;HTU21D;51290;45.060;38.948;2023-07-30T13:34:51;31.14;35.56
64833;HTU21D;51290;45.060;38.948;2023-07-30T13:37:17;31.21;35.69
64833;HTU21D;51290;45.060;38.948;2023-07-30T13:39:49;31.26;35.82
64833;HTU21D;51290;45.060;38.948;2023-07-30T13:42:15;31.27;35.76
64833;HTU21D;51290;45.060;38.948;2023-07-30T13:44:41;31.22;35.69
64833;HTU21D;51290;45.060;38.948;2023-07-30T13:47:07;31.12;35.79
64833;HTU21D;51290;45.060;38.948;2023-07-30T13:49:34;31.10;36.02
64833;HTU21D;51290;45.060;38.948;2023-07-30T13:52:00;31.07;35.77
64833;HTU21D;51290;45.060;38.948;2023-07-30T13:54:46;31.01;35.82
64833;HTU21D;51290;45.060;38.948;2023-07-30T13:57:23;30.95;35.85
64833;HTU21D;51290;45.060;38.948;2023-07-30T13:59:52;30.93;35.73
64833;HTU21D;51290;45.060;38.948;2023-07-30T14:02:19;30.89;35.73
64833;HTU21D;51290;45.060;38.948;2023-07-30T14:04:45;30.89;35.91
64833;HTU21D;51290;45.060;38.948;2023-07-30T14:07:11;30.97;36.02
64833;HTU21D;51290;45.060;38.948;2023-07-30T14:09:37;31.07;35.87
64833;HTU21D;51290;45.060;38.948;2023-07-30T14:12:04;31.15;35.63
64833;HTU21D;51290;45.060;38.948;2023-07-30T14:14:30;31.20;35.65
64833;HTU21D;51290;45.060;38.948;2023-07-30T14:16:56;31.16;35.35
64833;HTU21D;51290;45.060;38.948;2023-07-30T14:19:22;31.18;35.48
64833;HTU21D;51290;45.060;38.948;2023-07-30T14:21:48;31.14;35.47
64833;HTU21D;51290;45.060;38.948;2023-07-30T14:24:14;31.19;35.69
64833;HTU21D;51290;45.060;38.948;2023-07-30T14:26:41;31.31;35.58
64833;HTU21D;51290;45.060;38.948;2023-07-30T14:29:07;31.46;35.52
64833;HTU21D;51290;45.060;38.948;2023-07-30T14:31:33;31.65;35.27
64833;HTU21D;51290;45.060;38.948;2023-07-30T14:33:59;31.80;35.17
64833;HTU21D;51290;45.060;38.948;2023-07-30T14:36:25;31.90;35.15
64833;HTU21D;51290;45.060;38.948;2023-07-30T14:38:51;31.97;35.09
64833;HTU21D;51290;45.060;38.948;2023-07-30T14:41:17;32.01;35.12
64833;HTU21D;51290;45.060;38.948;2023-07-30T14:43:48;32.01;35.08
64833;HTU21D;51290;45.060;38.948;2023-07-30T14:46:14;31.95;34.96
64833;HTU21D;51290;45.060;38.948;2023-07-30T14:48:41;31.76;35.05
64833;HTU21D;51290;45.060;38.948;2023-07-30T14:51:09;31.66;35.46
64833;HTU21D;51290;45.060;38.948;2023-07-30T14:53:36;31.60;35.59
64833;HTU21D;51290;45.060;38.948;2023-07-30T14:56:02;31.58;35.72
64833;HTU21D;51290;45.060;38.948;2023-07-30T14:58:29;31.59;35.93
64833;HTU21D;51290;45.060;38.948;2023-07-30T15:00:55;31.61;35.97
64833;HTU21D;51290;45.060;38.948;2023-07-30T15:03:21;31.65;36.03
64833;HTU21D;51290;45.060;38.948;2023-07-30T15:05:47;31.67;35.95
64833;HTU21D;51290;45.060;38.948;2023-07-30T15:08:15;31.55;35.83